createdAt,value
2023-01-25T00:00:55.731Z,12.23
2023-01-25T00:03:22.555Z,11.57
2023-01-25T00:05:49.276Z,11.85
2023-01-25T00:08:16.699Z,12.18
2023-01-25T00:10:43.403Z,13.02
2023-01-25T00:13:10.200Z,12.68
2023-01-25T00:15:36.891Z,12.63
2023-01-25T00:18:03.737Z,13.13
2023-01-25T00:20:30.450Z,11.95
2023-01-25T00:22:57.135Z,11.35
2023-01-25T00:25:23.864Z,11.70
2023-01-25T00:27:50.663Z,12.07
2023-01-25T00:30:17.501Z,12.00
2023-01-25T00:33:02.198Z,12.35
2023-01-25T00:35:34.614Z,12.38
2023-01-25T00:38:02.958Z,12.10
2023-01-25T00:40:29.787Z,11.80
2023-01-25T00:42:56.537Z,13.38
2023-01-25T00:45:23.250Z,13.10
2023-01-25T00:47:50.443Z,11.80
2023-01-25T00:50:17.273Z,13.32
2023-01-25T00:52:44.049Z,11.70
2023-01-25T00:55:10.987Z,11.98
2023-01-25T00:57:37.700Z,10.60
2023-01-25T01:00:05.708Z,10.43
2023-01-25T01:02:32.430Z,11.48
2023-01-25T01:04:59.283Z,11.13
2023-01-25T01:07:26.123Z,10.50
2023-01-25T01:09:52.848Z,10.90
2023-01-25T01:12:19.550Z,10.68
2023-01-25T01:14:46.360Z,10.50
2023-01-25T01:17:13.059Z,10.15
2023-01-25T01:19:39.796Z,10.23
2023-01-25T01:22:06.698Z,10.57
2023-01-25T01:24:33.438Z,9.82
2023-01-25T01:27:00.145Z,9.55
2023-01-25T01:29:26.919Z,10.32
2023-01-25T01:31:53.919Z,10.68
2023-01-25T01:34:20.704Z,7.93
2023-01-25T01:36:47.516Z,8.68
2023-01-25T01:39:14.280Z,9.10
2023-01-25T01:41:40.996Z,9.20
2023-01-25T01:44:15.911Z,9.25
2023-01-25T01:46:52.754Z,9.52
2023-01-25T01:49:27.611Z,8.95
2023-01-25T01:52:10.856Z,8.70
2023-01-25T01:55:02.982Z,8.88
2023-01-25T01:57:53.678Z,8.55
2023-01-25T02:00:24.093Z,8.90
2023-01-25T02:02:51.784Z,7.55
2023-01-25T02:05:32.685Z,9.52
2023-01-25T02:08:00.643Z,8.38
2023-01-25T02:10:28.196Z,8.95
2023-01-25T02:12:56.447Z,9.10
2023-01-25T02:15:23.224Z,8.65
2023-01-25T02:17:51.114Z,9.38
2023-01-25T02:20:28.664Z,8.93
2023-01-25T02:23:17.431Z,8.95
2023-01-25T02:25:46.175Z,7.95
2023-01-25T02:28:20.781Z,8.63
2023-01-25T02:30:47.851Z,8.60
2023-01-25T02:33:16.445Z,8.65
2023-01-25T02:35:46.060Z,8.10
2023-01-25T02:38:15.838Z,8.88
2023-01-25T02:40:53.461Z,8.65
2023-01-25T02:43:20.456Z,8.98
2023-01-25T02:45:52.340Z,8.68
2023-01-25T02:48:19.177Z,8.77
2023-01-25T02:50:45.962Z,8.82
2023-01-25T02:53:12.711Z,10.23
2023-01-25T02:55:39.412Z,9.40
2023-01-25T02:58:06.836Z,9.80
2023-01-25T03:00:33.805Z,8.43
2023-01-25T03:03:01.220Z,7.60
2023-01-25T03:05:28.027Z,8.73
2023-01-25T03:07:54.907Z,7.68
2023-01-25T03:10:21.672Z,8.27
2023-01-25T03:12:48.422Z,9.18
2023-01-25T03:15:15.175Z,8.63
2023-01-25T03:17:41.991Z,8.13
2023-01-25T03:20:09.345Z,8.90
2023-01-25T03:22:36.947Z,8.75
2023-01-25T03:25:04.489Z,9.15
2023-01-25T03:27:31.474Z,9.93
2023-01-25T03:29:58.220Z,9.88
2023-01-25T03:32:25.079Z,8.90
2023-01-25T03:34:51.849Z,9.25
2023-01-25T03:37:18.702Z,9.35
2023-01-25T03:39:45.585Z,8.80
2023-01-25T03:42:13.237Z,9.70
2023-01-25T03:44:40.093Z,9.02
2023-01-25T03:47:06.923Z,8.73
2023-01-25T03:49:33.840Z,9.18
2023-01-25T03:52:00.581Z,8.50
2023-01-25T03:54:27.333Z,10.27
2023-01-25T03:56:54.368Z,10.25
2023-01-25T03:59:21.124Z,9.25
2023-01-25T04:01:47.943Z,11.05
2023-01-25T04:04:14.686Z,11.00
2023-01-25T04:06:41.392Z,10.23
2023-01-25T04:09:08.429Z,10.65
2023-01-25T04:11:35.374Z,10.45
2023-01-25T04:14:02.155Z,10.75
2023-01-25T04:16:31.350Z,10.38
2023-01-25T04:18:58.319Z,9.93
2023-01-25T04:21:25.155Z,11.63
2023-01-25T04:23:51.936Z,11.50
2023-01-25T04:26:18.762Z,10.23
2023-01-25T04:28:45.714Z,8.77
2023-01-25T04:31:12.511Z,9.57
2023-01-25T04:33:39.417Z,7.90
2023-01-25T04:36:06.505Z,9.13
2023-01-25T04:38:33.333Z,8.70
2023-01-25T04:41:00.321Z,7.93
2023-01-25T04:43:27.273Z,8.57
2023-01-25T04:45:54.095Z,8.45
2023-01-25T04:48:21.060Z,9.32
2023-01-25T04:50:47.930Z,8.38
2023-01-25T04:53:14.671Z,9.25
2023-01-25T04:55:45.482Z,10.02
2023-01-25T04:58:12.300Z,8.75
2023-01-25T05:00:39.841Z,10.13
2023-01-25T05:03:06.638Z,8.98
2023-01-25T05:05:33.400Z,8.70
2023-01-25T05:08:00.139Z,8.55
2023-01-25T05:10:26.902Z,9.98
2023-01-25T05:17:08.106Z,8.90
2023-01-25T05:19:35.090Z,8.82
2023-01-25T05:22:03.670Z,8.23
2023-01-25T05:24:32.866Z,8.95
2023-01-25T05:27:00.793Z,8.05
2023-01-25T05:29:28.841Z,8.77
2023-01-25T05:31:55.723Z,9.27
2023-01-25T05:34:22.493Z,9.40
2023-01-25T05:36:49.643Z,10.25
2023-01-25T05:39:16.489Z,11.75
2023-01-25T05:41:43.528Z,9.20
2023-01-25T05:44:10.560Z,8.75
2023-01-25T05:46:37.297Z,8.07
2023-01-25T05:49:04.864Z,9.57
2023-01-25T05:51:31.660Z,9.05
2023-01-25T05:53:58.584Z,10.10
2023-01-25T05:56:25.409Z,12.27
2023-01-25T05:58:56.623Z,9.85
2023-01-25T06:01:23.983Z,8.63
2023-01-25T06:03:50.721Z,9.90
2023-01-25T06:06:18.218Z,8.15
2023-01-25T06:08:45.398Z,7.10
2023-01-25T06:11:17.855Z,8.20
2023-01-25T06:13:45.262Z,7.88
2023-01-25T06:16:12.314Z,8.82
2023-01-25T06:18:39.118Z,8.38
2023-01-25T06:21:06.107Z,8.23
2023-01-25T06:23:33.045Z,7.22
2023-01-25T06:26:02.408Z,8.55
2023-01-25T06:31:19.859Z,7.82
2023-01-25T06:33:51.783Z,8.57
2023-01-25T06:36:20.394Z,8.05
2023-01-25T06:38:52.298Z,9.30
2023-01-25T06:41:19.933Z,8.80
2023-01-25T06:43:47.996Z,8.05
2023-01-25T06:46:15.075Z,7.75
2023-01-25T06:48:43.083Z,8.35
2023-01-25T06:51:13.186Z,9.10
2023-01-25T06:53:45.141Z,7.78
2023-01-25T06:56:15.167Z,8.43
2023-01-25T06:58:42.138Z,8.18
2023-01-25T07:01:20.345Z,9.50
2023-01-25T07:03:55.587Z,9.77
2023-01-25T07:06:25.086Z,9.75
2023-01-25T07:08:51.973Z,8.63
2023-01-25T07:11:19.193Z,8.30
2023-01-25T07:13:47.162Z,7.90
2023-01-25T07:16:19.825Z,8.77
2023-01-25T07:18:47.589Z,8.70
2023-01-25T07:21:17.336Z,8.73
2023-01-25T07:23:44.793Z,8.65
2023-01-25T07:26:19.489Z,8.90
2023-01-25T07:28:47.661Z,9.05
2023-01-25T07:31:15.871Z,8.85
2023-01-25T07:33:42.936Z,8.40
2023-01-25T07:36:11.060Z,9.13
2023-01-25T07:38:37.826Z,8.73
2023-01-25T07:41:04.941Z,9.73
2023-01-25T07:43:31.728Z,8.93
2023-01-25T07:46:03.527Z,8.73
2023-01-25T07:48:30.829Z,8.80
2023-01-25T07:51:11.996Z,8.27
2023-01-25T07:53:40.016Z,8.38
2023-01-25T07:56:07.610Z,9.50
2023-01-25T07:58:34.653Z,8.30
2023-01-25T08:01:12.973Z,9.70
2023-01-25T08:03:40.217Z,8.25
2023-01-25T08:06:08.016Z,8.30
2023-01-25T08:08:37.652Z,8.40
2023-01-25T08:11:26.110Z,9.15
2023-01-25T08:13:52.840Z,8.88
2023-01-25T08:16:22.110Z,8.30
2023-01-25T08:18:55.057Z,9.20
2023-01-25T08:21:25.298Z,9.90
2023-01-25T08:23:52.132Z,8.93
2023-01-25T08:26:19.374Z,8.05
2023-01-25T08:28:46.156Z,8.98
2023-01-25T08:31:16.100Z,8.88
2023-01-25T08:33:45.996Z,8.63
2023-01-25T08:36:14.011Z,8.93
2023-01-25T08:38:41.432Z,9.02
2023-01-25T08:41:11.253Z,8.05
2023-01-25T08:43:38.210Z,8.35
2023-01-25T08:46:05.958Z,8.98
2023-01-25T08:48:33.250Z,8.35
2023-01-25T08:51:00.988Z,9.43
2023-01-25T08:53:29.201Z,8.98
2023-01-25T08:55:56.053Z,9.13
2023-01-25T08:58:22.881Z,9.00
2023-01-25T09:00:49.817Z,8.80
2023-01-25T09:03:18.136Z,9.55
2023-01-25T09:05:45.154Z,9.80
2023-01-25T09:08:11.999Z,9.60
2023-01-25T09:10:38.706Z,9.82
2023-01-25T09:13:07.680Z,8.65
2023-01-25T09:15:35.497Z,9.27
2023-01-25T09:18:02.254Z,8.93
2023-01-25T09:20:31.714Z,9.07
2023-01-25T09:23:01.121Z,9.30
2023-01-25T09:25:27.902Z,10.48
2023-01-25T09:27:54.638Z,9.38
2023-01-25T09:30:26.364Z,9.45
2023-01-25T09:32:57.544Z,9.85
2023-01-25T09:35:24.373Z,9.98
2023-01-25T09:37:52.445Z,9.00
2023-01-25T09:40:23.651Z,9.30
2023-01-25T09:43:05.397Z,9.43
2023-01-25T09:45:36.812Z,9.73
2023-01-25T09:48:13.779Z,10.13
2023-01-25T09:50:49.327Z,10.00
2023-01-25T09:53:24.837Z,9.63
2023-01-25T09:55:59.490Z,12.07
2023-01-25T09:58:34.428Z,10.50
2023-01-25T10:01:37.645Z,9.32
2023-01-25T10:04:14.751Z,10.10
2023-01-25T10:06:55.238Z,10.07
2023-01-25T10:09:49.681Z,10.23
2023-01-25T10:12:21.469Z,10.43
2023-01-25T10:14:49.241Z,10.52
2023-01-25T10:17:58.211Z,10.07
2023-01-25T10:21:03.288Z,8.65
2023-01-25T10:23:54.941Z,9.43
2023-01-25T10:26:27.170Z,10.98
2023-01-25T10:28:56.895Z,12.27
2023-01-25T10:31:35.315Z,11.43
2023-01-25T10:34:03.456Z,10.50
2023-01-25T10:36:31.568Z,10.40
2023-01-25T10:39:00.959Z,9.57
2023-01-25T10:41:38.365Z,10.23
2023-01-25T10:44:23.916Z,9.98
2023-01-25T10:47:09.707Z,10.30
2023-01-25T10:49:54.853Z,10.02
2023-01-25T10:52:30.514Z,12.13
2023-01-25T10:55:17.355Z,10.82
2023-01-25T10:57:47.522Z,11.00
2023-01-25T11:00:52.581Z,11.40
2023-01-25T11:03:22.385Z,11.52
2023-01-25T11:05:56.701Z,11.38
2023-01-25T11:08:37.572Z,10.57
2023-01-25T11:11:33.335Z,10.80
2023-01-25T11:14:00.166Z,11.07
2023-01-25T11:16:38.061Z,11.63
2023-01-25T11:19:26.102Z,12.38
2023-01-25T11:21:58.548Z,10.98
2023-01-25T11:24:30.673Z,11.05
2023-01-25T11:27:19.132Z,11.82
2023-01-25T11:30:06.976Z,11.32
2023-01-25T11:32:34.127Z,11.63
2023-01-25T11:35:01.190Z,11.98
2023-01-25T11:37:52.983Z,11.57
2023-01-25T11:40:31.966Z,10.75
2023-01-25T11:43:11.189Z,11.80
2023-01-25T11:46:02.571Z,30.35
2023-01-25T11:48:43.693Z,12.68
2023-01-25T11:51:23.408Z,13.48
2023-01-25T11:53:58.400Z,13.98
2023-01-25T11:56:49.221Z,13.07
2023-01-25T11:59:33.828Z,13.15
2023-01-25T12:02:34.105Z,12.20
2023-01-25T12:05:21.504Z,9.93
2023-01-25T12:08:19.183Z,10.27
2023-01-25T12:11:15.457Z,11.05
2023-01-25T12:13:53.665Z,12.20
2023-01-25T12:16:28.381Z,13.57
2023-01-25T12:19:38.424Z,11.20
2023-01-25T12:22:30.439Z,12.18
2023-01-25T12:24:58.573Z,10.93
2023-01-25T12:28:02.959Z,11.25
2023-01-25T12:30:51.649Z,12.13
2023-01-25T12:33:33.819Z,10.93
2023-01-25T12:36:11.465Z,11.43
2023-01-25T12:38:48.929Z,10.02
2023-01-25T12:41:44.195Z,11.02
2023-01-25T12:44:24.638Z,10.95
2023-01-25T12:47:05.861Z,10.60
2023-01-25T12:49:44.137Z,10.38
2023-01-25T12:52:29.638Z,10.52
2023-01-25T12:55:04.599Z,10.98
2023-01-25T12:57:47.677Z,13.00
2023-01-25T13:00:35.938Z,11.70
2023-01-25T13:03:41.765Z,11.65
2023-01-25T13:06:28.767Z,11.38
2023-01-25T13:09:16.318Z,12.00
2023-01-25T13:11:45.077Z,12.23
2023-01-25T13:14:17.903Z,11.25
2023-01-25T13:17:09.348Z,10.15
2023-01-25T13:19:37.516Z,10.80
2023-01-25T13:22:04.812Z,11.10
2023-01-25T13:24:34.544Z,11.50
2023-01-25T13:27:24.677Z,11.38
2023-01-25T13:29:59.087Z,15.18
2023-01-25T13:32:26.375Z,11.40
2023-01-25T13:34:53.076Z,13.13
2023-01-25T13:37:26.260Z,14.38
2023-01-25T13:39:54.347Z,15.45
2023-01-25T13:42:23.950Z,12.65
2023-01-25T13:44:56.953Z,12.02
2023-01-25T13:47:27.491Z,10.73
2023-01-25T13:50:00.483Z,12.57
2023-01-25T13:52:29.252Z,11.63
2023-01-25T13:54:58.027Z,10.52
2023-01-25T13:57:26.219Z,10.77
2023-01-25T14:00:10.743Z,11.20
2023-01-25T14:02:40.388Z,12.48
2023-01-25T14:05:20.914Z,11.98
2023-01-25T14:07:52.238Z,13.07
2023-01-25T14:10:24.148Z,11.48
2023-01-25T14:12:52.902Z,11.07
2023-01-25T14:15:28.652Z,11.18
2023-01-25T14:18:09.592Z,9.95
2023-01-25T14:20:36.358Z,10.90
2023-01-25T14:23:04.084Z,10.93
2023-01-25T14:25:34.256Z,11.00
2023-01-25T14:28:02.440Z,10.93
2023-01-25T14:30:31.839Z,10.35
2023-01-25T14:33:20.817Z,11.32
2023-01-25T14:35:55.657Z,11.70
2023-01-25T14:38:40.709Z,11.23
2023-01-25T14:41:14.961Z,11.40
2023-01-25T14:43:45.564Z,13.07
2023-01-25T14:46:20.352Z,11.82
2023-01-25T14:48:47.340Z,11.52
2023-01-25T14:51:30.147Z,11.32
2023-01-25T14:54:02.067Z,13.27
2023-01-25T14:56:45.125Z,15.20
2023-01-25T14:59:38.248Z,12.68
2023-01-25T15:02:36.221Z,12.70
2023-01-25T15:05:18.257Z,12.20
2023-01-25T15:07:54.770Z,13.05
2023-01-25T15:10:24.336Z,12.25
2023-01-25T15:13:11.667Z,12.05
2023-01-25T15:16:03.836Z,12.20
2023-01-25T15:18:51.721Z,11.70
2023-01-25T15:21:24.678Z,12.30
2023-01-25T15:23:53.038Z,11.77
2023-01-25T15:26:25.230Z,11.13
2023-01-25T15:28:54.375Z,10.80
2023-01-25T15:31:29.751Z,11.20
2023-01-25T15:33:57.570Z,11.75
2023-01-25T15:36:24.700Z,11.18
2023-01-25T15:38:51.555Z,10.43
2023-01-25T15:41:21.283Z,10.55
2023-01-25T15:43:48.866Z,12.07
2023-01-25T15:46:20.676Z,11.30
2023-01-25T15:48:49.660Z,11.45
2023-01-25T15:51:16.991Z,11.65
2023-01-25T15:53:43.760Z,11.60
2023-01-25T15:56:19.179Z,11.82
2023-01-25T15:58:55.175Z,12.18
2023-01-25T16:01:27.396Z,12.07
2023-01-25T16:03:58.961Z,12.03
2023-01-25T16:06:34.616Z,12.45
2023-01-25T16:09:10.556Z,11.88
2023-01-25T16:11:37.507Z,12.32
2023-01-25T16:14:04.283Z,11.52
2023-01-25T16:16:31.049Z,12.05
2023-01-25T16:18:57.840Z,11.57
2023-01-25T16:21:24.617Z,10.80
2023-01-25T16:23:51.428Z,12.43
2023-01-25T16:26:22.725Z,13.02
2023-01-25T16:28:49.551Z,12.25
2023-01-25T16:31:31.246Z,13.43
2023-01-25T16:33:58.461Z,12.90
2023-01-25T16:36:25.346Z,12.75
2023-01-25T16:38:52.357Z,11.90
2023-01-25T16:41:19.229Z,12.43
2023-01-25T16:43:47.920Z,11.95
2023-01-25T16:46:23.268Z,12.68
2023-01-25T16:48:52.360Z,12.75
2023-01-25T16:51:22.404Z,12.52
2023-01-25T16:53:51.623Z,13.18
2023-01-25T16:56:19.586Z,12.30
2023-01-25T16:58:47.219Z,13.68
2023-01-25T17:01:15.919Z,13.40
2023-01-25T17:03:44.347Z,13.77
2023-01-25T17:06:26.249Z,13.95
2023-01-25T17:08:55.998Z,14.50
2023-01-25T17:11:23.723Z,15.15
2023-01-25T17:13:52.472Z,15.10
2023-01-25T17:16:20.837Z,14.90
2023-01-25T17:18:48.009Z,14.88
2023-01-25T17:21:16.755Z,16.50
2023-01-25T17:23:43.760Z,15.38
2023-01-25T17:26:13.724Z,15.27
2023-01-25T17:28:41.727Z,15.07
2023-01-25T17:31:20.686Z,14.70
2023-01-25T17:33:47.714Z,13.82
2023-01-25T17:36:15.318Z,13.52
2023-01-25T17:38:42.640Z,13.88
2023-01-25T17:41:11.675Z,14.80
2023-01-25T17:43:38.657Z,12.70
2023-01-25T17:46:22.757Z,14.05
2023-01-25T17:48:49.606Z,13.70
2023-01-25T17:51:16.392Z,13.93
2023-01-25T17:53:43.178Z,12.15
2023-01-25T17:56:11.082Z,13.68
2023-01-25T17:58:39.363Z,14.95
2023-01-25T18:01:17.227Z,14.57
2023-01-25T18:03:45.209Z,14.13
2023-01-25T18:06:18.463Z,15.43
2023-01-25T18:08:50.420Z,16.30
2023-01-25T18:11:22.719Z,15.43
2023-01-25T18:13:52.005Z,15.30
2023-01-25T18:16:22.184Z,15.65
2023-01-25T18:18:50.956Z,16.55
2023-01-25T18:21:23.957Z,16.13
2023-01-25T18:23:56.291Z,14.77
2023-01-25T18:26:26.464Z,16.13
2023-01-25T18:29:25.971Z,15.80
2023-01-25T18:31:53.134Z,15.38
2023-01-25T18:34:19.913Z,16.88
2023-01-25T18:36:48.243Z,15.77
2023-01-25T18:39:15.034Z,16.50
2023-01-25T18:41:43.271Z,17.02
2023-01-25T18:44:11.349Z,15.88
2023-01-25T18:46:40.366Z,15.63
2023-01-25T18:49:07.103Z,16.17
2023-01-25T18:51:38.979Z,15.48
2023-01-25T18:54:11.129Z,16.10
2023-01-25T18:56:37.865Z,15.65
2023-01-25T18:59:04.569Z,17.48
2023-01-25T19:01:31.718Z,15.95
2023-01-25T19:03:58.651Z,15.73
2023-01-25T19:06:25.619Z,15.27
2023-01-25T19:08:54.284Z,16.88
2023-01-25T19:11:22.530Z,15.65
2023-01-25T19:13:50.489Z,16.30
2023-01-25T19:16:20.386Z,16.10
2023-01-25T19:18:52.698Z,17.25
2023-01-25T19:21:21.913Z,15.85
2023-01-25T19:23:49.779Z,15.98
2023-01-25T19:26:19.147Z,16.30
2023-01-25T19:28:46.989Z,16.58
2023-01-25T19:31:20.325Z,14.13
2023-01-25T19:36:19.353Z,14.57
2023-01-25T19:38:47.600Z,15.32
2023-01-25T19:41:16.743Z,15.40
2023-01-25T19:43:43.671Z,15.57
2023-01-25T19:46:19.071Z,14.48
2023-01-25T19:48:49.834Z,14.82
2023-01-25T19:51:25.895Z,14.13
2023-01-25T19:53:55.096Z,15.48
2023-01-25T19:56:22.117Z,15.20
2023-01-25T19:58:50.949Z,15.98
2023-01-25T20:01:20.791Z,14.07
2023-01-25T20:03:48.201Z,14.73
2023-01-25T20:06:16.706Z,15.05
2023-01-25T20:08:45.371Z,15.52
2023-01-25T20:11:21.629Z,15.63
2023-01-25T20:13:50.366Z,15.40
2023-01-25T20:16:17.583Z,15.35
2023-01-25T20:18:46.337Z,14.48
2023-01-25T20:21:15.621Z,16.45
2023-01-25T20:23:44.782Z,16.45
2023-01-25T20:26:17.728Z,15.38
2023-01-25T20:28:47.347Z,15.43
2023-01-25T20:31:21.900Z,16.02
2023-01-25T20:33:51.076Z,17.33
2023-01-25T20:36:18.129Z,16.27
2023-01-25T20:38:45.613Z,18.30
2023-01-25T20:41:15.466Z,16.85
2023-01-25T20:43:53.028Z,18.77
2023-01-25T20:46:21.440Z,17.48
2023-01-25T20:48:49.042Z,18.08
2023-01-25T20:51:21.272Z,16.25
2023-01-25T20:53:49.568Z,15.93
2023-01-25T20:56:18.127Z,15.98
2023-01-25T20:58:51.188Z,16.75
2023-01-25T21:01:21.071Z,15.50
2023-01-25T21:03:49.265Z,17.02
2023-01-25T21:06:17.032Z,15.77
2023-01-25T21:08:44.833Z,16.58
2023-01-25T21:11:13.301Z,15.73
2023-01-25T21:13:40.477Z,15.02
2023-01-25T21:16:14.599Z,15.45
2023-01-25T21:18:47.029Z,16.80
2023-01-25T21:21:16.490Z,16.33
2023-01-25T21:23:45.547Z,15.52
2023-01-25T21:26:27.021Z,15.55
2023-01-25T21:28:54.954Z,15.80
2023-01-25T21:31:33.055Z,17.08
2023-01-25T21:34:00.859Z,16.27
2023-01-25T21:36:27.712Z,15.93
2023-01-25T21:38:55.665Z,16.02
2023-01-25T21:41:29.487Z,14.95
2023-01-25T21:44:16.740Z,16.20
2023-01-25T21:46:49.250Z,16.00
2023-01-25T21:49:45.813Z,14.95
2023-01-25T21:52:12.622Z,15.68
2023-01-25T21:54:39.410Z,16.30
2023-01-25T21:57:09.179Z,16.48
2023-01-25T21:59:36.700Z,16.63
2023-01-25T22:02:05.270Z,16.30
2023-01-25T22:04:36.083Z,16.83
2023-01-25T22:07:04.274Z,15.80
2023-01-25T22:09:31.338Z,16.90
2023-01-25T22:11:58.505Z,16.48
2023-01-25T22:14:25.334Z,15.70
2023-01-25T22:16:52.644Z,16.75
2023-01-25T22:19:19.816Z,17.30
2023-01-25T22:21:46.701Z,15.50
2023-01-25T22:24:13.641Z,15.60
2023-01-25T22:26:51.499Z,18.17
2023-01-25T22:29:18.271Z,17.10
2023-01-25T22:31:45.424Z,16.63
2023-01-25T22:34:12.312Z,16.90
2023-01-25T22:36:39.113Z,15.75
2023-01-25T22:39:06.339Z,15.10
2023-01-25T22:41:35.828Z,13.85
2023-01-25T22:44:02.889Z,15.57
2023-01-25T22:46:30.460Z,16.33
2023-01-25T22:49:00.323Z,14.88
2023-01-25T22:51:29.725Z,15.68
2023-01-25T22:53:58.072Z,15.23
2023-01-25T22:56:30.283Z,15.10
2023-01-25T22:58:59.082Z,14.60
2023-01-25T23:01:29.560Z,16.17
2023-01-25T23:03:57.034Z,15.48
2023-01-25T23:06:26.242Z,14.00
2023-01-25T23:09:00.110Z,13.57
2023-01-25T23:11:35.586Z,13.55
2023-01-25T23:14:22.385Z,14.27
2023-01-25T23:16:49.065Z,10.90
2023-01-25T23:19:15.929Z,10.30
2023-01-25T23:21:42.696Z,10.10
2023-01-25T23:24:10.204Z,9.93
2023-01-25T23:26:45.961Z,9.75
2023-01-25T23:29:13.387Z,10.02
2023-01-25T23:31:40.207Z,10.35
2023-01-25T23:34:07.344Z,10.63
2023-01-25T23:36:42.143Z,10.65
2023-01-25T23:39:12.965Z,12.90
2023-01-25T23:41:40.234Z,13.95
2023-01-25T23:44:07.478Z,14.13
2023-01-25T23:46:34.266Z,14.60
2023-01-25T23:49:01.017Z,12.10
2023-01-25T23:51:27.718Z,13.45
2023-01-25T23:53:55.750Z,14.60
2023-01-25T23:56:22.752Z,13.70
2023-01-25T23:58:50.227Z,13.23
